Time;durP1;ratioP1;P1;durP2;ratioP2;P2;SDS_P1;SDS_P2;PMS_P1;PMS_P2;Temp;Humidity;BMP_temperature;BMP_pressure;BME280_temperature;BME280_humidity;BME280_pressure;Samples;Min_cycle;Max_cycle;Signal;HPM_P1;HPM_P2
2021/08/25 00:00:28;;;;;;;2.92;2.55;;;18.70;67.40;;;;;;5051654;28;20048;-70
2021/08/25 00:02:53;;;;;;;5.03;3.08;;;18.70;68.10;;;;;;5050849;28;20048;-70
2021/08/25 00:05:19;;;;;;;8.65;2.83;;;18.60;67.30;;;;;;5053099;28;20500;-70
2021/08/25 00:07:45;;;;;;;3.85;2.67;;;18.60;67.30;;;;;;5052914;28;20029;-70
2021/08/25 00:10:12;;;;;;;4.78;2.58;;;18.60;67.20;;;;;;5035088;28;20479;-70
2021/08/25 00:12:38;;;;;;;4.75;2.72;;;18.60;67.60;;;;;;5052609;28;20021;-70
2021/08/25 00:15:06;;;;;;;3.50;2.75;;;18.60;67.80;;;;;;5052912;28;20485;-70
2021/08/25 00:17:32;;;;;;;4.57;2.80;;;18.50;67.80;;;;;;5052832;28;20381;-70
2021/08/25 00:19:58;;;;;;;7.38;2.83;;;18.50;67.10;;;;;;5052849;28;20021;-70
2021/08/25 00:22:24;;;;;;;4.68;3.03;;;18.40;67.00;;;;;;5051875;28;20028;-69
2021/08/25 00:24:50;;;;;;;4.38;2.78;;;18.40;65.90;;;;;;5052303;28;20490;-70
2021/08/25 00:27:16;;;;;;;6.72;3.08;;;18.30;66.50;;;;;;5052427;28;20107;-69
2021/08/25 00:29:42;;;;;;;4.40;3.30;;;18.30;66.90;;;;;;5052710;28;20116;-70
2021/08/25 00:32:08;;;;;;;5.80;2.80;;;18.20;66.70;;;;;;5053632;28;20028;-70
2021/08/25 00:34:33;;;;;;;7.05;2.83;;;18.20;66.40;;;;;;5053233;28;20032;-70
2021/08/25 00:36:59;;;;;;;4.97;2.50;;;18.10;66.50;;;;;;5053557;28;20029;-69
2021/08/25 00:39:25;;;;;;;5.28;2.53;;;18.00;66.40;;;;;;5053496;28;20028;-69
2021/08/25 00:41:51;;;;;;;4.45;2.75;;;18.00;66.50;;;;;;5053414;28;20027;-69
2021/08/25 00:44:17;;;;;;;6.55;2.63;;;17.90;66.60;;;;;;5053455;28;20032;-69
2021/08/25 00:46:45;;;;;;;3.15;2.50;;;17.80;66.80;;;;;;5053101;28;20079;-69
2021/08/25 00:49:18;;;;;;;14.55;3.17;;;17.80;67.10;;;;;;5053233;28;20548;-70
2021/08/25 00:51:45;;;;;;;4.53;2.47;;;17.70;67.00;;;;;;5033417;28;20017;-70
2021/08/25 00:54:13;;;;;;;7.25;2.67;;;17.60;67.10;;;;;;5033280;28;20032;-70
2021/08/25 00:56:40;;;;;;;5.10;2.80;;;17.60;67.20;;;;;;5033279;28;20421;-69
2021/08/25 00:59:06;;;;;;;5.32;2.97;;;17.50;67.20;;;;;;5050387;28;20036;-69
2021/08/25 01:01:50;;;;;;;6.22;3.03;;;17.40;67.40;;;;;;5052663;28;20108;-69
2021/08/25 01:04:32;;;;;;;5.28;2.63;;;17.30;67.50;;;;;;5052871;28;20494;-69
2021/08/25 01:06:58;;;;;;;3.80;2.45;;;17.20;67.40;;;;;;5033120;28;20029;-70
2021/08/25 01:09:24;;;;;;;5.20;2.72;;;17.20;68.40;;;;;;5033106;28;20092;-69
2021/08/25 01:11:52;;;;;;;7.95;2.85;;;17.10;67.70;;;;;;5033052;28;20168;-69
2021/08/25 01:14:18;;;;;;;4.20;2.60;;;17.00;67.70;;;;;;5032994;28;20021;-69
2021/08/25 01:16:45;;;;;;;4.07;2.72;;;16.90;67.90;;;;;;5051301;28;20021;-69
2021/08/25 01:19:14;;;;;;;3.78;2.50;;;16.90;68.00;;;;;;5051212;28;20299;-69
2021/08/25 01:21:41;;;;;;;7.68;2.50;;;16.80;68.30;;;;;;5051667;28;20116;-69
2021/08/25 01:24:08;;;;;;;3.50;2.60;;;16.80;68.30;;;;;;5052879;28;20028;-69
2021/08/25 01:26:34;;;;;;;4.20;2.95;;;16.70;68.50;;;;;;5052821;28;20036;-69
2021/08/25 01:29:01;;;;;;;3.70;2.45;;;16.60;68.60;;;;;;5052072;28;20124;-70
2021/08/25 01:31:28;;;;;;;6.95;3.95;;;16.60;68.80;;;;;;5052511;28;20021;-69
2021/08/25 01:34:05;;;;;;;4.82;3.00;;;16.50;68.90;;;;;;5052854;28;20055;-69
2021/08/25 01:36:32;;;;;;;3.25;2.40;;;16.40;68.80;;;;;;5032831;28;20108;-70
2021/08/25 01:38:58;;;;;;;3.70;2.30;;;16.40;69.10;;;;;;5032859;28;20025;-69
2021/08/25 01:41:27;;;;;;;3.58;2.30;;;16.40;69.30;;;;;;5047802;28;20112;-70
2021/08/25 01:44:00;;;;;;;5.25;3.08;;;16.30;69.30;;;;;;5034841;28;20029;-70
2021/08/25 01:46:28;;;;;;;6.20;2.67;;;16.20;69.40;;;;;;5051829;28;20031;-70
2021/08/25 01:48:55;;;;;;;3.42;2.50;;;16.20;69.50;;;;;;5052520;28;20025;-70
2021/08/25 01:51:23;;;;;;;3.72;2.63;;;16.20;69.60;;;;;;5052211;28;20097;-70
2021/08/25 01:53:48;;;;;;;4.03;2.90;;;16.10;69.70;;;;;;5052225;28;20064;-70
2021/08/25 01:56:14;;;;;;;4.70;2.67;;;16.10;69.80;;;;;;5052591;28;20041;-70
2021/08/25 01:58:40;;;;;;;6.35;2.55;;;16.10;70.00;;;;;;5052455;28;20103;-70
2021/08/25 02:01:06;;;;;;;5.28;3.13;;;16.00;70.00;;;;;;5034758;28;20029;-70
2021/08/25 02:03:32;;;;;;;5.03;3.22;;;16.00;69.90;;;;;;5052497;28;20021;-70
2021/08/25 02:05:58;;;;;;;3.38;2.72;;;16.00;70.10;;;;;;5052523;28;20127;-70
2021/08/25 02:08:24;;;;;;;5.15;2.67;;;15.90;70.10;;;;;;5052383;28;20033;-70
2021/08/25 02:10:50;;;;;;;5.05;2.88;;;15.90;70.20;;;;;;5052425;28;20029;-70
2021/08/25 02:13:16;;;;;;;6.35;2.78;;;15.90;70.30;;;;;;5054406;28;20379;-70
2021/08/25 02:15:41;;;;;;;4.07;3.00;;;15.80;70.30;;;;;;5056119;28;20500;-70
2021/08/25 02:18:07;;;;;;;4.20;2.55;;;15.80;70.50;;;;;;5056149;28;20032;-70
2021/08/25 02:20:33;;;;;;;3.92;2.65;;;15.80;70.60;;;;;;5056009;28;20464;-70
2021/08/25 02:22:59;;;;;;;3.97;2.78;;;15.80;70.60;;;;;;5056015;28;20028;-70
2021/08/25 02:25:25;;;;;;;3.90;2.58;;;15.70;70.60;;;;;;5038048;28;20059;-69
2021/08/25 02:27:51;;;;;;;6.20;3.03;;;15.70;70.70;;;;;;5055881;28;20025;-69
2021/08/25 02:30:16;;;;;;;5.35;2.80;;;15.70;70.70;;;;;;5055713;28;20036;-70
2021/08/25 02:32:42;;;;;;;4.90;2.83;;;15.70;70.80;;;;;;5055809;28;20025;-69
2021/08/25 02:35:10;;;;;;;3.00;2.40;;;15.60;70.70;;;;;;5055830;28;20055;-70
2021/08/25 02:37:36;;;;;;;6.97;3.80;;;15.60;70.80;;;;;;5055695;28;20064;-70
2021/08/25 02:40:03;;;;;;;4.63;2.90;;;15.60;70.80;;;;;;5055668;28;20052;-70
2021/08/25 02:42:29;;;;;;;3.42;2.42;;;15.50;70.90;;;;;;5055554;28;20108;-69
2021/08/25 02:44:55;;;;;;;4.35;2.97;;;15.50;71.00;;;;;;5037733;28;20117;-69
2021/08/25 02:47:21;;;;;;;8.13;3.00;;;15.50;71.10;;;;;;5055364;28;20104;-70
2021/08/25 02:49:47;;;;;;;3.88;2.85;;;15.50;71.10;;;;;;5055434;28;20025;-70
2021/08/25 02:52:12;;;;;;;3.90;2.85;;;15.50;71.10;;;;;;5055440;28;20021;-69
2021/08/25 02:54:38;;;;;;;3.75;2.92;;;15.40;71.00;;;;;;5037410;28;20017;-70
2021/08/25 02:57:04;;;;;;;4.13;2.90;;;15.40;71.10;;;;;;5055334;28;20017;-70
2021/08/25 02:59:29;;;;;;;5.85;3.03;;;15.40;71.50;;;;;;5055341;28;20120;-69
2021/08/25 03:01:56;;;;;;;7.88;2.95;;;15.30;71.20;;;;;;5055241;28;20036;-70
2021/08/25 03:04:21;;;;;;;5.18;3.50;;;15.30;71.20;;;;;;5055225;28;20104;-70
2021/08/25 03:06:47;;;;;;;3.58;3.03;;;15.30;72.00;;;;;;5037252;28;20060;-70
2021/08/25 03:09:13;;;;;;;4.75;3.30;;;15.30;71.40;;;;;;5055005;28;20032;-70
2021/08/25 03:11:39;;;;;;;3.60;3.10;;;15.30;71.50;;;;;;5054942;28;20074;-70
2021/08/25 03:14:05;;;;;;;5.97;3.42;;;15.20;71.50;;;;;;5055027;28;20070;-70
2021/08/25 03:16:31;;;;;;;4.47;3.00;;;15.20;71.50;;;;;;5054990;28;20128;-69
2021/08/25 03:18:57;;;;;;;4.82;3.00;;;15.20;71.50;;;;;;5054847;28;20367;-70
2021/08/25 03:21:23;;;;;;;3.75;2.83;;;15.20;71.60;;;;;;5054840;28;20040;-69
2021/08/25 03:23:49;;;;;;;3.60;2.92;;;15.10;71.50;;;;;;5054338;28;20025;-70
2021/08/25 03:26:15;;;;;;;4.30;3.15;;;15.10;71.60;;;;;;5054777;28;20049;-70
2021/08/25 03:28:41;;;;;;;6.90;3.72;;;15.10;72.40;;;;;;5054521;28;20049;-70
2021/08/25 03:31:06;;;;;;;5.07;3.10;;;15.10;71.80;;;;;;5054746;28;20045;-70
2021/08/25 03:33:32;;;;;;;5.60;3.25;;;15.00;71.70;;;;;;5054630;28;20501;-69
2021/08/25 03:35:58;;;;;;;6.10;3.53;;;15.00;71.70;;;;;;5054529;28;20076;-70
2021/08/25 03:38:24;;;;;;;5.97;2.70;;;15.00;71.70;;;;;;5054510;28;20029;-69
2021/08/25 03:40:50;;;;;;;4.60;3.22;;;15.00;71.80;;;;;;5054355;28;20025;-69
2021/08/25 03:43:15;;;;;;;6.05;3.00;;;15.00;71.90;;;;;;5054437;28;20031;-69
2021/08/25 03:45:41;;;;;;;4.70;3.20;;;15.00;71.90;;;;;;5054177;28;20102;-70
2021/08/25 03:48:07;;;;;;;4.47;3.42;;;15.00;72.00;;;;;;5054225;28;20025;-69
2021/08/25 03:50:33;;;;;;;5.10;3.22;;;15.00;72.00;;;;;;5054212;28;20067;-70
2021/08/25 03:52:58;;;;;;;5.70;3.50;;;15.00;72.10;;;;;;5054255;28;20028;-69
2021/08/25 03:55:24;;;;;;;13.10;3.28;;;14.90;72.00;;;;;;5054133;28;20033;-70
2021/08/25 03:57:50;;;;;;;5.78;3.45;;;14.90;72.10;;;;;;5054123;28;20036;-69
2021/08/25 04:00:16;;;;;;;7.78;4.15;;;14.90;72.10;;;;;;5054077;28;20025;-69
2021/08/25 04:02:42;;;;;;;5.38;2.97;;;14.90;72.10;;;;;;5036122;28;20386;-69
2021/08/25 04:05:08;;;;;;;4.57;3.03;;;14.90;72.20;;;;;;5053895;28;20040;-69
2021/08/25 04:07:34;;;;;;;5.68;3.08;;;14.80;72.10;;;;;;5053799;28;20032;-69
2021/08/25 04:10:00;;;;;;;4.82;3.70;;;14.80;72.10;;;;;;5053814;28;20029;-69
2021/08/25 04:12:26;;;;;;;4.22;3.38;;;14.80;72.10;;;;;;5053701;28;20470;-69
2021/08/25 04:14:51;;;;;;;5.68;3.35;;;14.80;72.20;;;;;;5053796;28;20053;-70
2021/08/25 04:17:17;;;;;;;9.27;3.53;;;14.80;72.30;;;;;;5053789;28;20040;-69
2021/08/25 04:19:43;;;;;;;7.15;3.40;;;14.80;72.30;;;;;;5053715;28;20029;-69
2021/08/25 04:22:09;;;;;;;7.78;3.47;;;14.80;72.40;;;;;;5051470;28;20110;-69
2021/08/25 04:24:36;;;;;;;6.40;3.35;;;14.80;72.30;;;;;;5052347;28;20033;-69
2021/08/25 04:27:03;;;;;;;5.28;2.75;;;14.70;72.30;;;;;;5052196;28;20025;-69
2021/08/25 04:29:28;;;;;;;7.10;3.58;;;14.70;72.40;;;;;;5052191;28;20104;-70
2021/08/25 04:31:54;;;;;;;5.00;3.88;;;14.70;72.50;;;;;;5053431;28;20025;-70
2021/08/25 04:34:20;;;;;;;4.85;3.30;;;14.70;72.60;;;;;;5053321;28;20040;-69
2021/08/25 04:36:46;;;;;;;4.85;3.35;;;14.70;72.70;;;;;;5034931;28;20075;-69
2021/08/25 04:39:12;;;;;;;5.10;3.70;;;14.70;72.80;;;;;;5035405;28;20075;-69
2021/08/25 04:41:38;;;;;;;6.70;3.67;;;14.70;73.00;;;;;;5053305;28;20033;-69
2021/08/25 04:44:05;;;;;;;5.57;3.25;;;14.70;73.00;;;;;;5053218;28;20025;-69
2021/08/25 04:46:31;;;;;;;9.43;3.80;;;14.80;73.20;;;;;;5053294;28;20021;-70
2021/08/25 04:48:57;;;;;;;8.15;3.97;;;14.80;73.30;;;;;;5053113;28;20047;-69
2021/08/25 04:51:23;;;;;;;5.03;3.10;;;14.80;73.30;;;;;;5035313;28;20466;-69
2021/08/25 04:53:49;;;;;;;4.68;2.97;;;14.80;73.40;;;;;;5053181;28;20025;-70
2021/08/25 04:56:15;;;;;;;6.35;3.20;;;14.80;73.40;;;;;;5053152;28;20044;-70
2021/08/25 04:58:41;;;;;;;5.00;3.40;;;14.90;73.50;;;;;;5053113;28;20386;-69
2021/08/25 05:01:08;;;;;;;8.00;3.95;;;14.90;73.50;;;;;;5035161;28;20025;-70
2021/08/25 05:03:34;;;;;;;5.68;3.42;;;14.90;73.60;;;;;;5052876;28;20398;-70
2021/08/25 05:06:05;;;;;;;4.18;3.30;;;15.00;73.70;;;;;;5053022;28;20021;-69
2021/08/25 05:08:30;;;;;;;6.45;3.30;;;15.00;73.80;;;;;;5052914;28;20062;-69
2021/08/25 05:10:56;;;;;;;25.00;3.80;;;15.10;73.80;;;;;;5052968;28;20025;-70
2021/08/25 05:13:22;;;;;;;5.28;3.40;;;15.10;73.90;;;;;;5052767;28;20021;-69
2021/08/25 05:15:48;;;;;;;7.05;3.97;;;15.20;74.00;;;;;;5052802;28;20466;-70
2021/08/25 05:18:14;;;;;;;12.35;4.45;;;15.20;73.90;;;;;;5052899;28;20032;-69
2021/08/25 05:20:40;;;;;;;17.88;4.97;;;15.30;74.00;;;;;;5052788;28;20037;-70
2021/08/25 05:23:06;;;;;;;13.82;5.97;;;15.30;74.00;;;;;;5052721;28;20036;-69
2021/08/25 05:25:31;;;;;;;10.30;4.35;;;15.40;73.90;;;;;;5052775;28;20017;-69
2021/08/25 05:27:57;;;;;;;6.45;3.63;;;15.40;74.00;;;;;;5052653;28;20074;-69
2021/08/25 05:30:23;;;;;;;13.05;4.80;;;15.50;74.00;;;;;;5034094;28;20056;-69
2021/08/25 05:32:52;;;;;;;6.60;4.63;;;15.50;74.00;;;;;;5052053;28;20048;-69
2021/08/25 05:35:19;;;;;;;10.95;4.90;;;15.60;74.70;;;;;;5052090;28;20025;-69
2021/08/25 05:37:46;;;;;;;9.15;4.18;;;15.60;73.70;;;;;;5048136;28;20063;-70
2021/08/25 05:40:13;;;;;;;6.85;4.03;;;15.70;73.80;;;;;;5054403;28;20029;-70
2021/08/25 05:42:40;;;;;;;6.05;4.00;;;15.70;73.80;;;;;;5050097;28;20021;-69
2021/08/25 05:45:07;;;;;;;8.45;4.40;;;15.80;73.80;;;;;;5031261;28;20025;-69
2021/08/25 05:47:33;;;;;;;6.82;4.35;;;15.90;73.50;;;;;;5040884;28;20036;-69
2021/08/25 05:49:59;;;;;;;7.10;3.63;;;15.90;73.40;;;;;;5055216;28;20025;-70
2021/08/25 05:52:24;;;;;;;6.90;4.32;;;16.00;73.60;;;;;;5055784;28;20013;-69
2021/08/25 05:54:50;;;;;;;10.10;4.50;;;16.10;73.50;;;;;;5053860;28;20029;-70
2021/08/25 05:57:16;;;;;;;10.75;4.85;;;16.10;73.00;;;;;;5055539;28;20143;-69
2021/08/25 05:59:42;;;;;;;13.82;4.20;;;16.10;73.00;;;;;;5055356;28;20474;-69
2021/08/25 06:02:08;;;;;;;9.43;4.65;;;16.20;72.70;;;;;;5054777;28;20025;-69
2021/08/25 06:04:33;;;;;;;7.80;4.38;;;16.30;72.70;;;;;;5053152;28;20477;-69
2021/08/25 06:06:59;;;;;;;6.65;4.10;;;16.30;72.80;;;;;;5055439;28;20033;-69
2021/08/25 06:09:25;;;;;;;8.57;3.78;;;16.40;73.00;;;;;;5054227;28;20045;-69
2021/08/25 06:11:51;;;;;;;5.95;3.70;;;16.50;72.80;;;;;;5055037;28;20099;-69
2021/08/25 06:14:16;;;;;;;8.43;4.07;;;16.50;72.50;;;;;;5055074;28;20028;-69
2021/08/25 06:16:43;;;;;;;6.50;4.05;;;16.50;72.40;;;;;;5054652;28;20025;-69
2021/08/25 06:19:09;;;;;;;6.90;4.07;;;16.60;72.30;;;;;;5054027;28;20378;-69
2021/08/25 06:21:35;;;;;;;9.23;3.92;;;16.60;72.10;;;;;;5055000;28;20025;-69
2021/08/25 06:24:02;;;;;;;8.90;3.50;;;16.70;72.30;;;;;;5054536;28;20021;-69
2021/08/25 06:26:28;;;;;;;9.07;3.85;;;16.70;71.90;;;;;;5054638;28;20421;-69
2021/08/25 06:28:54;;;;;;;7.72;3.97;;;16.80;71.80;;;;;;5054149;28;20052;-69
2021/08/25 06:31:20;;;;;;;9.75;4.10;;;16.90;71.70;;;;;;5036801;28;20025;-70
2021/08/25 06:33:46;;;;;;;6.57;3.72;;;17.00;71.70;;;;;;5054764;28;20429;-69
2021/08/25 06:36:12;;;;;;;8.85;3.97;;;17.00;71.60;;;;;;5053451;28;20029;-69
2021/08/25 06:38:37;;;;;;;11.70;3.55;;;17.10;71.40;;;;;;5036179;28;20030;-69
2021/08/25 06:41:03;;;;;;;5.45;3.88;;;17.30;71.50;;;;;;5054471;28;20029;-69
2021/08/25 06:43:30;;;;;;;14.25;3.80;;;17.30;72.00;;;;;;5054831;28;20057;-70
2021/08/25 06:45:56;;;;;;;9.43;4.78;;;17.40;71.20;;;;;;5053281;28;20126;-69
2021/08/25 06:48:22;;;;;;;7.25;3.90;;;17.50;70.90;;;;;;5054123;28;20029;-69
2021/08/25 06:50:48;;;;;;;7.22;3.88;;;17.60;70.20;;;;;;5059066;28;20452;-70
2021/08/25 06:53:13;;;;;;;8.15;3.80;;;17.70;70.50;;;;;;5058967;28;20538;-69
2021/08/25 06:55:39;;;;;;;7.65;5.25;;;17.80;70.40;;;;;;5050018;28;20029;-69
2021/08/25 06:58:05;;;;;;;7.80;4.50;;;17.80;69.50;;;;;;5033721;28;20028;-70
2021/08/25 07:00:31;;;;;;;8.60;4.63;;;17.90;69.40;;;;;;5044836;28;20025;-70
2021/08/25 07:02:56;;;;;;;9.02;3.90;;;18.00;69.70;;;;;;5054177;28;20450;-70
2021/08/25 07:05:22;;;;;;;7.53;3.95;;;18.10;70.00;;;;;;5056647;28;20052;-69
2021/08/25 07:07:48;;;;;;;7.18;3.85;;;18.20;69.90;;;;;;5054422;28;20547;-70
2021/08/25 07:10:15;;;;;;;7.15;4.30;;;18.30;70.30;;;;;;5037066;28;20025;-69
2021/08/25 07:12:40;;;;;;;6.50;3.90;;;18.40;68.60;;;;;;5054623;28;20028;-70
2021/08/25 07:15:06;;;;;;;6.85;4.35;;;18.60;68.20;;;;;;5054838;28;20017;-70
2021/08/25 07:17:32;;;;;;;6.82;4.25;;;18.70;66.50;;;;;;5054999;28;20474;-69
2021/08/25 07:19:58;;;;;;;6.15;3.63;;;18.80;68.00;;;;;;5058256;28;20085;-69
2021/08/25 07:22:24;;;;;;;7.75;4.10;;;18.90;66.80;;;;;;5054937;28;20060;-69
2021/08/25 07:24:49;;;;;;;6.85;4.05;;;19.00;66.00;;;;;;5054620;28;20032;-68
2021/08/25 07:27:15;;;;;;;8.65;4.93;;;19.10;64.70;;;;;;5054517;28;20032;-68
2021/08/25 07:29:41;;;;;;;11.38;6.57;;;19.20;63.30;;;;;;5054311;28;20058;-68
2021/08/25 07:32:07;;;;;;;8.80;5.03;;;19.30;63.20;;;;;;5054463;28;20036;-67
2021/08/25 07:34:33;;;;;;;9.45;5.43;;;19.40;64.20;;;;;;5049805;28;20029;-66
2021/08/25 07:36:58;;;;;;;12.48;5.80;;;19.50;62.10;;;;;;5033411;28;20032;-67
2021/08/25 07:39:24;;;;;;;7.95;5.10;;;19.60;63.60;;;;;;5051562;28;20028;-67
2021/08/25 07:41:50;;;;;;;9.68;5.30;;;19.70;65.20;;;;;;5052050;28;20037;-70
2021/08/25 07:44:16;;;;;;;14.18;4.97;;;19.80;64.20;;;;;;5047067;28;20041;-65
2021/08/25 07:46:42;;;;;;;9.18;6.03;;;20.00;63.50;;;;;;5052782;28;20032;-68
2021/08/25 07:49:07;;;;;;;8.85;5.45;;;20.10;61.70;;;;;;5052808;28;20154;-67
2021/08/25 07:51:36;;;;;;;9.00;4.88;;;20.20;62.20;;;;;;5034925;28;20025;-67
2021/08/25 07:54:03;;;;;;;11.57;5.90;;;20.30;63.80;;;;;;5052906;28;20021;-67
2021/08/25 07:56:30;;;;;;;11.43;6.03;;;20.40;62.80;;;;;;5052702;28;20071;-63
2021/08/25 07:58:55;;;;;;;8.32;5.80;;;20.40;62.70;;;;;;5015356;28;20025;-63
2021/08/25 08:01:22;;;;;;;13.88;6.72;;;20.50;63.10;;;;;;5039860;28;20028;-68
2021/08/25 08:03:48;;;;;;;9.98;6.32;;;20.50;62.40;;;;;;5052889;28;20029;-67
2021/08/25 08:06:20;;;;;;;10.25;5.80;;;20.60;62.80;;;;;;5052673;28;20079;-66
2021/08/25 08:08:46;;;;;;;10.25;5.85;;;20.60;60.20;;;;;;5052874;28;20059;-66
2021/08/25 08:11:12;;;;;;;9.48;5.55;;;20.70;62.30;;;;;;5052813;28;20021;-66
2021/08/25 08:13:38;;;;;;;10.55;5.95;;;20.80;63.00;;;;;;5051808;28;20021;-65
2021/08/25 08:16:04;;;;;;;9.77;5.43;;;20.90;61.60;;;;;;5052804;28;20429;-66
2021/08/25 08:18:33;;;;;;;15.18;5.75;;;21.00;59.70;;;;;;5052552;28;20033;-66
2021/08/25 08:20:59;;;;;;;43.53;8.98;;;21.10;60.50;;;;;;5039101;28;20033;-65
2021/08/25 08:23:25;;;;;;;13.45;7.07;;;21.20;59.80;;;;;;5052214;28;20435;-65
2021/08/25 08:25:51;;;;;;;13.52;6.53;;;21.30;57.60;;;;;;5052472;28;20025;-66
2021/08/25 08:28:17;;;;;;;11.25;6.07;;;21.30;58.80;;;;;;5052014;28;20090;-66
2021/08/25 08:30:42;;;;;;;8.48;5.80;;;21.30;58.70;;;;;;5052116;28;20052;-67
2021/08/25 08:33:08;;;;;;;11.48;6.32;;;21.30;58.90;;;;;;5051850;28;20495;-66
2021/08/25 08:35:36;;;;;;;10.57;6.15;;;21.30;58.00;;;;;;5052205;28;20493;-66
2021/08/25 08:38:06;;;;;;;9.40;6.03;;;21.30;56.90;;;;;;5052143;28;20032;-65
2021/08/25 08:40:33;;;;;;;11.73;6.05;;;21.30;57.90;;;;;;5038066;28;20040;-67
2021/08/25 08:43:11;;;;;;;10.30;5.88;;;21.40;59.30;;;;;;5052646;28;20021;-67
2021/08/25 08:45:44;;;;;;;9.43;5.15;;;21.50;58.30;;;;;;5052602;28;20021;-67
2021/08/25 08:48:14;;;;;;;14.38;6.13;;;21.50;57.80;;;;;;5051726;28;20029;-67
2021/08/25 08:50:43;;;;;;;10.07;5.80;;;21.60;56.80;;;;;;5052900;28;20036;-67
2021/08/25 08:53:11;;;;;;;11.73;5.25;;;21.60;56.50;;;;;;5053106;28;20021;-68
2021/08/25 08:55:37;;;;;;;9.85;5.28;;;21.60;55.30;;;;;;5053077;28;20024;-67
2021/08/25 08:58:03;;;;;;;8.63;4.53;;;21.60;56.30;;;;;;5053049;28;20029;-68
2021/08/25 09:00:29;;;;;;;8.05;5.25;;;21.60;56.40;;;;;;5053050;28;20465;-67
2021/08/25 09:02:55;;;;;;;10.45;6.10;;;21.60;55.50;;;;;;5052891;28;20025;-67
2021/08/25 09:05:23;;;;;;;9.70;5.45;;;21.70;55.20;;;;;;5052964;28;20052;-68
2021/08/25 09:07:58;;;;;;;11.88;5.65;;;21.70;55.60;;;;;;5051534;28;20055;-68
2021/08/25 09:10:27;;;;;;;14.07;5.32;;;21.90;54.80;;;;;;5052796;28;20032;-68
2021/08/25 09:13:02;;;;;;;8.02;4.38;;;22.00;53.70;;;;;;5052666;28;20529;-67
2021/08/25 09:15:30;;;;;;;8.57;4.47;;;22.20;52.80;;;;;;5052621;28;20025;-68
2021/08/25 09:18:13;;;;;;;10.13;4.10;;;22.40;52.10;;;;;;5052501;28;20405;-68
2021/08/25 09:20:41;;;;;;;10.13;4.90;;;22.50;53.80;;;;;;5052708;28;20025;-68
2021/08/25 09:23:18;;;;;;;8.30;4.80;;;22.60;52.30;;;;;;5052401;28;20021;-68
2021/08/25 09:25:46;;;;;;;7.32;4.57;;;22.80;53.80;;;;;;5051322;28;20057;-68
2021/08/25 09:28:15;;;;;;;8.27;4.88;;;22.90;53.10;;;;;;5051002;28;20134;-68
2021/08/25 09:30:56;;;;;;;8.48;4.50;;;23.00;53.30;;;;;;5052698;28;20059;-68
2021/08/25 09:33:28;;;;;;;8.77;4.68;;;23.10;53.60;;;;;;5052601;28;20112;-67
2021/08/25 09:35:56;;;;;;;8.63;4.50;;;23.20;52.70;;;;;;5052740;28;20131;-68
2021/08/25 09:38:24;;;;;;;6.43;4.00;;;23.30;52.60;;;;;;5052594;28;20112;-68
2021/08/25 09:40:56;;;;;;;8.93;4.30;;;23.30;54.10;;;;;;5052602;28;20037;-68
2021/08/25 09:43:36;;;;;;;13.48;4.63;;;23.40;52.60;;;;;;5052440;28;20385;-68
2021/08/25 09:46:12;;;;;;;11.60;5.03;;;23.50;51.70;;;;;;5052589;28;20444;-67
2021/08/25 09:48:41;;;;;;;7.65;4.10;;;23.40;50.20;;;;;;5052447;28;20082;-67
2021/08/25 09:51:08;;;;;;;7.32;4.28;;;23.40;51.10;;;;;;5052916;28;20059;-68
2021/08/25 09:53:34;;;;;;;7.88;4.35;;;23.40;50.80;;;;;;5034547;28;20025;-68
2021/08/25 09:56:00;;;;;;;5.75;3.55;;;23.40;52.20;;;;;;5052454;28;20032;-68
2021/08/25 09:58:26;;;;;;;8.02;3.97;;;23.40;52.60;;;;;;5052505;28;20020;-67
2021/08/25 10:00:56;;;;;;;12.20;3.63;;;23.50;53.30;;;;;;5034500;28;20056;-68
2021/08/25 10:03:23;;;;;;;5.97;3.70;;;23.50;53.70;;;;;;5034351;28;20425;-68
2021/08/25 10:05:49;;;;;;;9.05;4.22;;;23.60;53.80;;;;;;5052415;28;20040;-67
2021/08/25 10:08:16;;;;;;;11.10;4.03;;;23.60;51.10;;;;;;5034363;28;20091;-67
2021/08/25 10:10:43;;;;;;;7.18;3.97;;;23.60;50.20;;;;;;5052393;28;20052;-67
2021/08/25 10:13:09;;;;;;;6.28;3.83;;;23.50;48.90;;;;;;5052309;28;20025;-67
2021/08/25 10:15:44;;;;;;;7.35;3.97;;;23.40;50.50;;;;;;5052138;28;20425;-67
2021/08/25 10:18:30;;;;;;;8.65;4.13;;;23.30;49.00;;;;;;5052226;28;20053;-66
2021/08/25 10:20:58;;;;;;;8.27;4.95;;;23.20;49.50;;;;;;5052000;28;20021;-67
2021/08/25 10:23:58;;;;;;;7.00;4.32;;;23.10;48.90;;;;;;5052167;28;20100;-67
2021/08/25 10:26:27;;;;;;;5.50;3.28;;;23.10;49.80;;;;;;5052205;28;20024;-67
2021/08/25 10:28:58;;;;;;;6.03;3.85;;;23.10;51.70;;;;;;5051729;28;20044;-66
2021/08/25 10:31:53;;;;;;;8.38;3.72;;;23.10;51.70;;;;;;5052050;28;20021;-68
2021/08/25 10:34:21;;;;;;;6.85;3.97;;;23.20;50.20;;;;;;5035868;28;20497;-68
2021/08/25 10:36:48;;;;;;;6.00;3.85;;;23.30;50.90;;;;;;5055410;28;20025;-68
2021/08/25 10:39:29;;;;;;;8.70;4.57;;;23.50;52.30;;;;;;5055505;28;20025;-67
2021/08/25 10:41:56;;;;;;;7.40;4.53;;;23.60;50.00;;;;;;5055266;28;20028;-68
2021/08/25 10:44:40;;;;;;;6.55;4.25;;;23.70;47.70;;;;;;5055305;28;20032;-67
2021/08/25 10:47:10;;;;;;;6.43;3.72;;;23.90;50.70;;;;;;5055345;28;20029;-68
2021/08/25 10:49:38;;;;;;;9.05;4.53;;;24.00;50.80;;;;;;5055429;28;20098;-68
2021/08/25 10:52:31;;;;;;;8.10;4.00;;;24.00;46.40;;;;;;5055343;28;20025;-67
2021/08/25 10:54:57;;;;;;;7.82;4.00;;;24.00;48.90;;;;;;5055322;28;20013;-68
2021/08/25 10:57:25;;;;;;;6.68;3.80;;;24.10;49.00;;;;;;5055286;28;20359;-67
2021/08/25 10:59:52;;;;;;;8.27;4.10;;;24.20;49.30;;;;;;5055202;28;20028;-68
2021/08/25 11:02:18;;;;;;;6.60;4.10;;;24.20;47.00;;;;;;5055159;28;20082;-67
2021/08/25 11:04:44;;;;;;;10.02;3.90;;;24.30;46.40;;;;;;5055153;28;20021;-68
2021/08/25 11:07:12;;;;;;;5.45;3.33;;;24.40;49.00;;;;;;5055173;28;20025;-68
2021/08/25 11:09:46;;;;;;;7.65;3.63;;;24.50;48.40;;;;;;5055035;28;20021;-68
2021/08/25 11:12:13;;;;;;;;;;;24.80;50.80;;;;;;5055509;28;20051;-67
2021/08/25 11:14:39;;;;;;;6.35;3.58;;;25.00;50.30;;;;;;5054969;28;20376;-68
2021/08/25 11:17:08;;;;;;;6.82;3.90;;;25.20;48.40;;;;;;5054911;28;20021;-68
2021/08/25 11:19:39;;;;;;;5.72;3.60;;;25.30;49.10;;;;;;5054847;28;20534;-68
2021/08/25 11:22:06;;;;;;;6.05;3.78;;;25.50;49.10;;;;;;5054886;28;20025;-68
2021/08/25 11:24:41;;;;;;;7.28;3.83;;;25.70;48.40;;;;;;5054796;28;20447;-68
2021/08/25 11:27:37;;;;;;;7.93;3.70;;;25.60;44.50;;;;;;5054759;28;20044;-67
2021/08/25 11:30:14;;;;;;;7.03;4.18;;;25.50;43.50;;;;;;5054382;28;20124;-68
2021/08/25 11:32:49;;;;;;;6.18;3.95;;;25.30;43.70;;;;;;5054651;28;20032;-68
2021/08/25 11:35:38;;;;;;;7.65;4.05;;;25.30;45.50;;;;;;5054730;28;20527;-67
2021/08/25 11:38:13;;;;;;;7.97;3.50;;;25.20;45.80;;;;;;5036571;28;20029;-68
2021/08/25 11:40:41;;;;;;;8.48;3.60;;;25.20;46.00;;;;;;5054453;28;20045;-68
2021/08/25 11:43:09;;;;;;;6.40;4.00;;;25.20;45.10;;;;;;5054361;28;20025;-68
2021/08/25 11:45:37;;;;;;;5.78;3.80;;;25.20;44.80;;;;;;5036233;28;20021;-67
2021/08/25 11:48:04;;;;;;;5.70;3.65;;;25.20;45.20;;;;;;5054233;28;20020;-67
2021/08/25 11:50:35;;;;;;;4.28;3.20;;;25.10;47.00;;;;;;5036508;28;20037;-68
2021/08/25 11:53:02;;;;;;;7.60;4.50;;;25.10;47.10;;;;;;5054131;28;20057;-68
2021/08/25 11:55:34;;;;;;;6.68;3.38;;;25.20;47.40;;;;;;5036372;28;20036;-68
2021/08/25 11:58:00;;;;;;;4.78;3.25;;;25.20;46.90;;;;;;5054092;28;20474;-68
2021/08/25 12:00:41;;;;;;;6.93;3.65;;;25.20;45.10;;;;;;5054112;28;20032;-68
2021/08/25 12:03:08;;;;;;;7.07;3.85;;;25.30;47.60;;;;;;5054028;28;20029;-68
2021/08/25 12:05:36;;;;;;;13.55;3.90;;;25.40;45.50;;;;;;5053922;28;20021;-68
2021/08/25 12:08:06;;;;;;;7.85;3.92;;;25.50;46.30;;;;;;5053599;28;20041;-68
2021/08/25 12:10:33;;;;;;;5.60;3.50;;;25.60;45.10;;;;;;5053936;28;20017;-68
2021/08/25 12:12:59;;;;;;;6.20;4.07;;;25.80;47.20;;;;;;5053810;28;20439;-68
2021/08/25 12:15:45;;;;;;;5.95;3.60;;;25.90;45.30;;;;;;5053752;28;20103;-68
2021/08/25 12:18:11;;;;;;;5.18;3.80;;;26.10;46.80;;;;;;5053709;28;20051;-67
2021/08/25 12:20:39;;;;;;;6.55;3.90;;;26.20;45.20;;;;;;5053771;28;20029;-68
2021/08/25 12:23:07;;;;;;;4.85;3.40;;;26.30;43.50;;;;;;5053483;28;20021;-68
2021/08/25 12:25:53;;;;;;;6.18;3.53;;;26.40;45.60;;;;;;5053639;28;20021;-68
2021/08/25 12:28:33;;;;;;;5.25;3.28;;;26.60;45.10;;;;;;5053354;28;20025;-68
2021/08/25 12:31:21;;;;;;;5.40;3.53;;;26.70;43.90;;;;;;5053538;28;20482;-68
2021/08/25 12:33:54;;;;;;;6.65;3.83;;;26.80;44.80;;;;;;5053260;28;20052;-67
2021/08/25 12:36:31;;;;;;;7.13;3.50;;;26.90;42.90;;;;;;5053623;28;20091;-67
2021/08/25 12:39:15;;;;;;;6.75;3.55;;;26.80;43.40;;;;;;5053339;28;20037;-67
2021/08/25 12:41:43;;;;;;;6.95;3.55;;;26.70;44.00;;;;;;5053462;28;20099;-68
2021/08/25 12:44:10;;;;;;;7.05;3.92;;;26.60;43.00;;;;;;5053182;28;20029;-67
2021/08/25 12:46:58;;;;;;;6.65;3.47;;;26.50;43.60;;;;;;5053146;28;20044;-68
2021/08/25 12:49:27;;;;;;;5.40;3.20;;;26.30;43.30;;;;;;5053250;28;20067;-68